createdAt,value
2018-04-25T00:02:07.180Z,14.10
2018-04-25T00:04:34.711Z,14.10
2018-04-25T00:07:02.237Z,14.10
2018-04-25T00:09:29.772Z,14.00
2018-04-25T00:11:58.041Z,13.90
2018-04-25T00:14:26.383Z,13.80
2018-04-25T00:16:53.910Z,13.80
2018-04-25T00:19:22.211Z,13.80
2018-04-25T00:21:49.745Z,13.70
2018-04-25T00:24:17.320Z,13.70
2018-04-25T00:26:44.797Z,13.70
2018-04-25T00:29:12.323Z,13.60
2018-04-25T00:31:39.853Z,13.70
2018-04-25T00:34:08.147Z,13.80
2018-04-25T00:36:36.443Z,13.70
2018-04-25T00:39:03.953Z,13.70
2018-04-25T00:41:31.481Z,13.80
2018-04-25T00:43:59.800Z,13.80
2018-04-25T00:46:27.333Z,13.80
2018-04-25T00:48:54.849Z,13.80
2018-04-25T00:51:22.378Z,13.80
2018-04-25T00:53:49.878Z,13.70
2018-04-25T00:56:17.411Z,13.70
2018-04-25T00:58:44.946Z,13.70
2018-04-25T01:01:12.481Z,13.70
2018-04-25T01:03:40.758Z,13.70
2018-04-25T01:06:09.074Z,13.60
2018-04-25T01:08:36.584Z,13.60
2018-04-25T01:11:04.888Z,13.60
2018-04-25T01:13:32.394Z,13.50
2018-04-25T01:15:59.913Z,13.50
2018-04-25T01:18:27.422Z,13.50
2018-04-25T01:20:54.978Z,13.60
2018-04-25T01:23:24.288Z,13.60
2018-04-25T01:26:07.138Z,13.70
2018-04-25T01:28:40.411Z,13.60
2018-04-25T01:31:10.554Z,13.60
2018-04-25T01:33:38.061Z,13.60
2018-04-25T01:36:06.423Z,13.60
2018-04-25T01:38:34.009Z,13.60
2018-04-25T01:41:11.898Z,13.60
2018-04-25T01:43:39.428Z,13.60
2018-04-25T01:46:07.731Z,13.60
2018-04-25T01:51:52.664Z,13.50
2018-04-25T01:54:31.889Z,13.40
2018-04-25T01:57:12.120Z,13.40
2018-04-25T01:59:51.647Z,13.40
2018-04-25T02:02:18.686Z,13.40
2018-04-25T02:04:46.195Z,13.40
2018-04-25T02:07:13.721Z,13.30
2018-04-25T02:09:41.241Z,13.30
2018-04-25T02:12:08.773Z,13.30
2018-04-25T02:14:36.282Z,13.30
2018-04-25T02:17:03.815Z,13.30
2018-04-25T02:19:31.342Z,13.40
2018-04-25T02:21:59.620Z,13.40
2018-04-25T02:24:27.940Z,13.40
2018-04-25T02:26:55.469Z,13.30
2018-04-25T02:29:23.008Z,13.30
2018-04-25T02:31:50.517Z,13.30
2018-04-25T02:34:18.038Z,13.30
2018-04-25T02:36:45.561Z,13.30
2018-04-25T02:39:13.095Z,13.30
2018-04-25T02:41:40.650Z,13.30
2018-04-25T02:44:08.180Z,13.30
2018-04-25T02:46:35.707Z,13.30
2018-04-25T02:49:03.264Z,13.30
2018-04-25T02:51:30.787Z,13.30
2018-04-25T02:53:58.359Z,13.40
2018-04-25T02:56:25.878Z,13.40
2018-04-25T02:58:53.413Z,13.40
2018-04-25T03:01:21.694Z,13.40
2018-04-25T03:03:49.222Z,13.40
2018-04-25T03:06:16.741Z,13.40
2018-04-25T03:08:44.295Z,13.40
2018-04-25T03:11:11.805Z,13.40
2018-04-25T03:13:39.332Z,13.40
2018-04-25T03:16:06.847Z,13.50
2018-04-25T03:18:35.161Z,13.40
2018-04-25T03:21:02.673Z,13.40
2018-04-25T03:23:30.211Z,13.40
2018-04-25T03:25:57.718Z,13.40
2018-04-25T03:28:25.276Z,13.40
2018-04-25T03:30:52.786Z,13.30
2018-04-25T03:33:20.331Z,13.30
2018-04-25T03:35:47.843Z,13.40
2018-04-25T03:38:16.118Z,13.30
2018-04-25T03:40:44.430Z,13.40
2018-04-25T03:43:11.938Z,13.40
2018-04-25T03:45:39.472Z,13.40
2018-04-25T03:48:06.988Z,13.40
2018-04-25T03:50:34.539Z,13.50
2018-04-25T03:53:02.046Z,13.50
2018-04-25T03:55:29.590Z,13.50
2018-04-25T03:57:57.105Z,13.50
2018-04-25T04:00:25.398Z,13.50
2018-04-25T04:02:53.660Z,13.50
2018-04-25T04:05:21.202Z,13.50
2018-04-25T04:07:48.739Z,13.50
2018-04-25T04:10:17.043Z,13.80
2018-04-25T04:12:44.566Z,13.70
2018-04-25T04:15:12.097Z,13.80
2018-04-25T04:17:39.615Z,13.90
2018-04-25T04:20:07.171Z,13.90
2018-04-25T04:22:34.710Z,13.90
2018-04-25T04:25:02.255Z,13.90
2018-04-25T04:27:30.549Z,13.80
2018-04-25T04:29:58.089Z,13.80
2018-04-25T04:32:25.594Z,13.80
2018-04-25T04:34:53.902Z,13.90
2018-04-25T04:37:21.421Z,13.90
2018-04-25T04:39:49.953Z,14.00
2018-04-25T04:42:18.231Z,14.30
2018-04-25T04:44:46.500Z,14.40
2018-04-25T04:47:14.379Z,14.40
2018-04-25T04:49:41.956Z,14.70
2018-04-25T04:52:10.339Z,15.30
2018-04-25T04:54:37.841Z,15.20
2018-04-25T04:57:06.270Z,15.80
2018-04-25T04:59:33.786Z,15.80
2018-04-25T05:02:04.662Z,16.00
2018-04-25T05:04:33.547Z,16.10
2018-04-25T05:07:01.875Z,16.30
2018-04-25T05:09:29.395Z,16.30
2018-04-25T05:11:56.920Z,16.30
2018-04-25T05:14:25.706Z,16.60
2018-04-25T05:16:53.232Z,16.60
2018-04-25T05:19:21.554Z,16.50
2018-04-25T05:21:49.858Z,16.50
2018-04-25T05:24:17.433Z,16.40
2018-04-25T05:26:44.939Z,16.50
2018-04-25T05:29:12.482Z,16.70
2018-04-25T05:31:40.017Z,16.80
2018-04-25T05:34:07.559Z,16.60
2018-04-25T05:36:35.103Z,16.60
2018-04-25T05:39:03.897Z,16.10
2018-04-25T05:41:31.426Z,16.20
2018-04-25T05:43:59.833Z,16.50
2018-04-25T05:46:28.129Z,16.80
2018-04-25T05:48:56.402Z,17.10
2018-04-25T05:51:24.717Z,17.40
2018-04-25T05:53:52.250Z,17.40
2018-04-25T05:56:19.783Z,17.70
2018-04-25T05:58:47.289Z,17.70
2018-04-25T06:01:14.838Z,18.10
2018-04-25T06:03:42.362Z,18.40
2018-04-25T06:06:10.672Z,18.80
2018-04-25T06:08:38.197Z,18.80
2018-04-25T06:11:05.731Z,19.00
2018-04-25T06:13:33.310Z,19.10
2018-04-25T06:16:00.822Z,19.30
2018-04-25T06:18:28.377Z,19.00
2018-04-25T06:20:55.889Z,18.90
2018-04-25T06:23:24.206Z,18.60
2018-04-25T06:25:51.725Z,18.50
2018-04-25T06:28:19.337Z,18.50
2018-04-25T06:30:46.783Z,18.70
2018-04-25T06:33:15.076Z,18.60
2018-04-25T06:35:43.348Z,18.70
2018-04-25T06:38:10.899Z,18.70
2018-04-25T06:40:38.412Z,18.80
2018-04-25T06:43:06.698Z,18.70
2018-04-25T06:45:34.964Z,18.80
2018-04-25T06:48:02.517Z,18.70
2018-04-25T06:50:30.041Z,18.70
2018-04-25T06:52:57.586Z,18.80
2018-04-25T06:55:25.110Z,18.80
2018-04-25T06:57:52.667Z,19.00
2018-04-25T07:00:20.216Z,19.00
2018-04-25T07:02:48.520Z,19.30
2018-04-25T07:05:16.049Z,19.30
2018-04-25T07:07:43.580Z,19.40
2018-04-25T07:10:11.101Z,19.70
2018-04-25T07:12:38.644Z,19.80
2018-04-25T07:15:06.150Z,19.90
2018-04-25T07:17:33.687Z,20.30
2018-04-25T07:20:01.207Z,20.40
2018-04-25T07:22:29.514Z,20.70
2018-04-25T07:24:57.047Z,20.70
2018-04-25T07:27:38.611Z,20.80
2018-04-25T07:30:06.126Z,20.70
2018-04-25T07:32:34.120Z,20.40
2018-04-25T07:35:02.395Z,19.90
2018-04-25T07:37:29.954Z,19.90
2018-04-25T07:39:57.519Z,20.10
2018-04-25T07:42:25.802Z,19.90
2018-04-25T07:44:53.345Z,19.80
2018-04-25T07:47:20.858Z,19.30
2018-04-25T07:49:49.801Z,19.10
2018-04-25T07:52:18.166Z,19.10
2018-04-25T07:54:45.642Z,19.10
2018-04-25T07:57:13.517Z,19.00
2018-04-25T07:59:41.836Z,19.20
2018-04-25T08:02:10.122Z,19.30
2018-04-25T08:04:37.669Z,19.30
2018-04-25T08:07:05.188Z,19.30
2018-04-25T08:09:32.728Z,19.40
2018-04-25T08:12:01.007Z,19.90
2018-04-25T08:14:40.338Z,19.90
2018-04-25T08:17:19.608Z,20.00
2018-04-25T08:19:59.701Z,19.80
2018-04-25T08:22:27.230Z,19.80
2018-04-25T08:24:54.763Z,19.90
2018-04-25T08:27:23.121Z,19.90
2018-04-25T08:29:51.416Z,19.90
2018-04-25T08:32:19.706Z,19.80
2018-04-25T08:34:47.272Z,19.80
2018-04-25T08:37:15.555Z,19.70
2018-04-25T08:39:43.858Z,20.10
2018-04-25T08:42:11.386Z,20.10
2018-04-25T08:44:39.030Z,20.10
2018-04-25T08:47:06.463Z,20.40
2018-04-25T08:49:34.787Z,20.40
2018-04-25T08:52:02.418Z,20.40
2018-04-25T08:54:30.771Z,20.50
2018-04-25T08:56:58.336Z,20.50
2018-04-25T08:59:25.904Z,20.70
2018-04-25T09:01:53.420Z,21.10
2018-04-25T09:04:20.949Z,21.10
2018-04-25T09:06:48.467Z,20.90
2018-04-25T09:09:16.009Z,20.70
2018-04-25T09:11:43.526Z,20.50
2018-04-25T09:14:11.842Z,20.40
2018-04-25T09:16:39.384Z,20.40
2018-04-25T09:19:07.671Z,20.40
2018-04-25T09:21:35.975Z,20.30
2018-04-25T09:24:03.490Z,20.30
2018-04-25T09:26:31.065Z,20.60
2018-04-25T09:28:58.599Z,20.90
2018-04-25T09:31:26.166Z,20.70
2018-04-25T09:33:53.719Z,20.80
2018-04-25T09:36:22.430Z,20.70
2018-04-25T09:38:50.003Z,20.70
2018-04-25T09:41:18.318Z,21.20
2018-04-25T09:43:45.878Z,21.20
2018-04-25T09:46:14.354Z,21.40
2018-04-25T09:48:42.652Z,21.00
2018-04-25T09:51:10.228Z,21.00
2018-04-25T09:53:37.765Z,21.00
2018-04-25T09:56:05.312Z,21.40
2018-04-25T09:58:33.629Z,21.60
2018-04-25T10:01:01.962Z,21.70
2018-04-25T10:03:29.491Z,21.70
2018-04-25T10:05:57.016Z,21.80
2018-04-25T10:08:24.593Z,21.90
2018-04-25T10:10:52.129Z,22.10
2018-04-25T10:13:19.668Z,22.00
2018-04-25T10:15:48.000Z,22.00
2018-04-25T10:18:15.742Z,22.00
2018-04-25T10:20:43.302Z,21.90
2018-04-25T10:23:10.851Z,22.10
2018-04-25T10:25:38.379Z,22.00
2018-04-25T10:28:06.688Z,20.60
2018-04-25T10:30:34.244Z,20.60
2018-04-25T10:33:02.557Z,19.90
2018-04-25T10:35:30.326Z,19.90
2018-04-25T10:37:58.201Z,19.80
2018-04-25T10:40:25.798Z,19.90
2018-04-25T10:42:54.058Z,19.90
2018-04-25T10:45:22.401Z,19.90
2018-04-25T10:47:49.936Z,20.20
2018-04-25T10:50:17.585Z,20.40
2018-04-25T10:52:45.895Z,20.60
2018-04-25T10:55:13.431Z,20.60
2018-04-25T10:57:41.003Z,20.80
2018-04-25T11:00:09.333Z,20.50
2018-04-25T11:02:36.869Z,20.50
2018-04-25T11:05:05.161Z,21.00
2018-04-25T11:07:32.716Z,21.00
2018-04-25T11:10:00.262Z,21.20
2018-04-25T11:12:27.835Z,21.30
2018-04-25T11:14:55.391Z,21.20
2018-04-25T11:17:22.951Z,21.10
2018-04-25T11:19:50.834Z,20.60
2018-04-25T11:22:18.400Z,20.90
2018-04-25T11:24:45.925Z,20.90
2018-04-25T11:27:13.456Z,20.90
2018-04-25T11:29:41.025Z,21.20
2018-04-25T11:32:08.575Z,21.40
2018-04-25T11:34:36.909Z,21.20
2018-04-25T11:37:04.429Z,21.20
2018-04-25T11:39:32.753Z,22.00
2018-04-25T11:42:00.285Z,22.00
2018-04-25T11:44:28.601Z,22.00
2018-04-25T11:46:56.125Z,22.00
2018-04-25T11:49:23.671Z,22.10
2018-04-25T11:51:51.195Z,22.00
2018-04-25T11:54:19.499Z,21.60
2018-04-25T11:56:47.027Z,21.60
2018-04-25T11:59:14.593Z,21.30
2018-04-25T12:01:42.135Z,21.30
2018-04-25T12:04:09.673Z,21.00
2018-04-25T12:06:37.966Z,21.20
2018-04-25T12:09:06.276Z,21.30
2018-04-25T12:11:33.816Z,21.30
2018-04-25T12:14:02.151Z,21.40
2018-04-25T12:16:29.707Z,21.40
2018-04-25T12:18:57.273Z,21.00
2018-04-25T12:21:24.860Z,21.20
2018-04-25T12:23:52.414Z,21.20
2018-04-25T12:26:20.706Z,21.70
2018-04-25T12:28:48.245Z,21.70
2018-04-25T12:31:15.779Z,21.30
2018-04-25T12:33:43.339Z,21.30
2018-04-25T12:36:13.886Z,20.80
2018-04-25T12:38:42.290Z,20.70
2018-04-25T12:41:09.829Z,21.10
2018-04-25T12:43:37.416Z,21.30
2018-04-25T12:46:04.957Z,21.10
2018-04-25T12:48:33.260Z,20.90
2018-04-25T12:51:01.611Z,20.20
2018-04-25T12:53:29.200Z,20.20
2018-04-25T12:55:56.741Z,19.90
2018-04-25T12:58:24.253Z,20.00
2018-04-25T13:00:52.611Z,19.90
2018-04-25T13:03:20.128Z,19.90
2018-04-25T13:05:48.449Z,20.30
2018-04-25T13:08:16.000Z,20.30
2018-04-25T13:10:43.538Z,20.40
2018-04-25T13:13:11.838Z,20.50
2018-04-25T13:15:39.389Z,20.50
2018-04-25T13:18:06.914Z,20.50
2018-04-25T13:20:34.471Z,20.30
2018-04-25T13:23:02.796Z,20.20
2018-04-25T13:25:30.393Z,20.20
2018-04-25T13:27:58.012Z,20.10
2018-04-25T13:30:25.556Z,20.10
2018-04-25T13:32:53.099Z,20.00
2018-04-25T13:35:20.677Z,20.30
2018-04-25T13:37:48.192Z,20.50
2018-04-25T13:40:15.841Z,20.10
2018-04-25T13:42:43.363Z,20.00
2018-04-25T13:45:10.898Z,20.00
2018-04-25T13:47:38.418Z,20.10
2018-04-25T13:50:06.305Z,20.20
2018-04-25T13:52:33.866Z,20.10
2018-04-25T13:55:01.385Z,20.30
2018-04-25T13:57:29.106Z,20.40
2018-04-25T13:59:56.624Z,20.30
2018-04-25T14:02:24.179Z,20.20
2018-04-25T14:04:51.717Z,20.00
2018-04-25T14:07:19.260Z,19.90
2018-04-25T14:09:47.556Z,20.00
2018-04-25T14:12:15.128Z,19.90
2018-04-25T14:14:43.423Z,19.70
2018-04-25T14:17:10.979Z,19.70
2018-04-25T14:19:38.514Z,19.80
2018-04-25T14:22:06.147Z,19.70
2018-04-25T14:24:33.967Z,19.80
2018-04-25T14:27:01.533Z,19.90
2018-04-25T14:29:29.073Z,19.90
2018-04-25T14:31:56.605Z,19.70
2018-04-25T14:34:24.136Z,19.60
2018-04-25T14:36:51.694Z,19.90
2018-04-25T14:39:19.268Z,19.90
2018-04-25T14:41:47.444Z,19.70
2018-04-25T14:44:14.995Z,19.60
2018-04-25T14:46:43.291Z,19.70
2018-04-25T14:49:11.575Z,19.60
2018-04-25T14:51:39.903Z,19.60
2018-04-25T14:54:07.442Z,19.60
2018-04-25T14:56:35.003Z,19.70
2018-04-25T14:59:02.593Z,19.60
2018-04-25T15:01:30.984Z,19.80
2018-04-25T15:03:58.476Z,19.80
2018-04-25T15:06:26.033Z,19.90
2018-04-25T15:08:53.674Z,20.00
2018-04-25T15:11:21.211Z,20.00
2018-04-25T15:13:48.760Z,19.90
2018-04-25T15:16:16.310Z,19.70
2018-04-25T15:18:43.851Z,19.80
2018-04-25T15:21:11.420Z,19.80
2018-04-25T15:23:39.003Z,19.40
2018-04-25T15:26:07.303Z,19.30
2018-04-25T15:28:34.961Z,19.20
2018-04-25T15:31:02.559Z,19.10
2018-04-25T15:33:30.915Z,18.70
2018-04-25T15:35:58.519Z,18.70
2018-04-25T15:38:26.839Z,18.80
2018-04-25T15:40:54.411Z,18.70
2018-04-25T15:43:21.962Z,18.70
2018-04-25T15:45:50.279Z,18.90
2018-04-25T15:48:17.846Z,18.90
2018-04-25T15:50:46.183Z,18.90
2018-04-25T15:53:14.219Z,18.80
2018-04-25T15:55:41.853Z,18.90
2018-04-25T15:58:11.539Z,18.90
2018-04-25T16:00:39.083Z,18.60
2018-04-25T16:03:06.634Z,18.50
2018-04-25T16:05:34.150Z,18.50
2018-04-25T16:08:01.713Z,18.40
2018-04-25T16:10:29.269Z,18.40
2018-04-25T16:12:56.863Z,18.60
2018-04-25T16:15:24.409Z,18.60
2018-04-25T16:17:52.732Z,18.90
2018-04-25T16:20:20.291Z,18.90
2018-04-25T16:22:48.049Z,18.50
2018-04-25T16:25:15.622Z,18.40
2018-04-25T16:27:43.908Z,18.30
2018-04-25T16:30:11.518Z,18.30
2018-04-25T16:32:39.070Z,18.30
2018-04-25T16:35:06.635Z,18.40
2018-04-25T16:37:34.155Z,18.50
2018-04-25T16:40:01.713Z,18.60
2018-04-25T16:42:29.292Z,18.80
2018-04-25T16:44:56.824Z,18.60
2018-04-25T16:47:24.345Z,18.60
2018-04-25T16:49:51.912Z,18.60
2018-04-25T16:54:53.495Z,18.70
2018-04-25T16:57:21.020Z,18.50
2018-04-25T16:59:49.337Z,18.40
2018-04-25T17:02:16.873Z,18.30
2018-04-25T17:04:44.429Z,18.30
2018-04-25T17:07:11.957Z,18.20
2018-04-25T17:09:39.707Z,18.20
2018-04-25T17:12:07.175Z,18.00
2018-04-25T17:14:35.514Z,18.10
2018-04-25T17:17:03.071Z,18.10
2018-04-25T17:19:31.010Z,18.30
2018-04-25T17:21:59.392Z,18.30
2018-04-25T17:24:26.925Z,18.30
2018-04-25T17:26:54.507Z,18.30
2018-04-25T17:29:22.048Z,18.30
2018-04-25T17:31:49.595Z,18.20
2018-04-25T17:34:17.892Z,17.80
2018-04-25T17:36:46.237Z,17.80
2018-04-25T17:39:13.775Z,17.70
2018-04-25T17:41:41.335Z,17.70
2018-04-25T17:44:09.629Z,17.70
2018-04-25T17:46:37.177Z,17.60
2018-04-25T17:49:05.486Z,17.50
2018-04-25T17:51:33.881Z,17.50
2018-04-25T17:54:01.414Z,17.50
2018-04-25T17:56:29.006Z,17.40
2018-04-25T17:58:56.519Z,17.40
2018-04-25T18:01:24.055Z,17.40
2018-04-25T18:03:52.354Z,17.20
2018-04-25T18:06:20.677Z,17.10
2018-04-25T18:08:48.221Z,17.10
2018-04-25T18:11:15.769Z,16.90
2018-04-25T18:13:43.321Z,16.70
2018-04-25T18:16:10.884Z,16.80
2018-04-25T18:18:38.407Z,16.70
2018-04-25T18:21:06.738Z,16.60
2018-04-25T18:23:34.258Z,16.50
2018-04-25T18:26:02.572Z,16.60
2018-04-25T18:28:30.099Z,16.50
2018-04-25T18:30:57.695Z,16.50
2018-04-25T18:33:25.996Z,16.40
2018-04-25T18:35:53.526Z,16.40
2018-04-25T18:38:21.122Z,16.20
2018-04-25T18:40:55.075Z,16.10
2018-04-25T18:43:22.607Z,16.10
2018-04-25T18:45:50.158Z,16.10
2018-04-25T18:48:17.710Z,16.10
2018-04-25T18:50:45.224Z,16.00
2018-04-25T18:53:12.796Z,16.00
2018-04-25T18:55:42.047Z,16.00
2018-04-25T18:58:10.407Z,15.90
2018-04-25T19:00:38.692Z,16.20
2018-04-25T19:03:06.317Z,15.80
2018-04-25T19:05:34.585Z,15.80
2018-04-25T19:08:02.150Z,15.80
2018-04-25T19:10:29.696Z,15.80
2018-04-25T19:12:58.901Z,15.80
2018-04-25T19:15:26.505Z,15.80
2018-04-25T19:17:53.967Z,15.70
2018-04-25T19:20:22.259Z,15.70
2018-04-25T19:22:50.560Z,15.70
2018-04-25T19:25:18.080Z,15.70
2018-04-25T19:27:45.622Z,15.70
2018-04-25T19:30:13.155Z,15.70
2018-04-25T19:32:41.476Z,15.60
2018-04-25T19:35:09.073Z,15.60
2018-04-25T19:37:36.620Z,15.70
2018-04-25T19:40:04.166Z,15.70
2018-04-25T19:42:32.491Z,15.80
2018-04-25T19:45:00.021Z,15.80
2018-04-25T19:47:28.356Z,15.80
2018-04-25T19:49:55.904Z,15.80
2018-04-25T19:52:23.472Z,15.80
2018-04-25T19:54:51.003Z,15.70
2018-04-25T19:57:18.538Z,15.70
2018-04-25T19:59:46.085Z,15.70
2018-04-25T20:02:14.386Z,15.60
2018-04-25T20:04:41.980Z,15.60
2018-04-25T20:07:10.150Z,15.60
2018-04-25T20:09:37.714Z,15.50
2018-04-25T20:12:06.201Z,15.40
2018-04-25T20:14:34.111Z,15.30
2018-04-25T20:17:01.651Z,15.30
2018-04-25T20:19:29.991Z,15.10
2018-04-25T20:21:57.553Z,15.10
2018-04-25T20:24:25.136Z,14.90
2018-04-25T20:26:52.674Z,14.80
2018-04-25T20:29:20.237Z,14.60
2018-04-25T20:31:47.788Z,14.50
2018-04-25T20:34:16.077Z,14.30
2018-04-25T20:36:43.856Z,14.30
2018-04-25T20:39:11.458Z,14.20
2018-04-25T20:41:39.020Z,14.00
2018-04-25T20:44:07.367Z,14.00
2018-04-25T20:46:34.917Z,14.00
2018-04-25T20:49:02.470Z,14.00
2018-04-25T20:51:30.016Z,14.00
2018-04-25T20:53:58.360Z,14.10
2018-04-25T20:56:25.878Z,14.10
2018-04-25T20:58:54.186Z,14.00
2018-04-25T21:01:21.723Z,14.00
2018-04-25T21:03:49.301Z,14.00
2018-04-25T21:06:17.606Z,14.00
2018-04-25T21:08:45.135Z,13.90
2018-04-25T21:11:12.800Z,13.90
2018-04-25T21:13:40.276Z,13.90
2018-04-25T21:16:07.860Z,13.90
2018-04-25T21:18:35.421Z,14.00
2018-04-25T21:21:02.973Z,13.90
2018-04-25T21:23:30.490Z,13.90
2018-04-25T21:25:58.048Z,13.90
2018-04-25T21:28:25.558Z,13.90
2018-04-25T21:30:53.870Z,13.90
2018-04-25T21:33:22.161Z,13.80
2018-04-25T21:35:49.746Z,13.80
2018-04-25T21:38:17.316Z,13.80
2018-04-25T21:40:44.862Z,13.80
2018-04-25T21:43:12.456Z,13.70
2018-04-25T21:45:40.025Z,13.60
2018-04-25T21:48:07.570Z,13.50
2018-04-25T21:50:35.973Z,13.70
2018-04-25T21:53:03.530Z,13.70
2018-04-25T21:55:31.848Z,13.60
2018-04-25T21:57:59.622Z,13.60
2018-04-25T22:00:27.911Z,13.50
2018-04-25T22:02:55.500Z,13.50
2018-04-25T22:05:23.082Z,13.50
2018-04-25T22:07:50.601Z,13.20
2018-04-25T22:10:18.906Z,12.50
2018-04-25T22:12:46.483Z,12.50
2018-04-25T22:15:14.050Z,12.30
2018-04-25T22:17:41.582Z,12.20
2018-04-25T22:20:09.124Z,12.10
2018-04-25T22:22:36.675Z,12.00
2018-04-25T22:25:04.204Z,12.00
2018-04-25T22:27:31.757Z,11.90
2018-04-25T22:29:59.280Z,11.90
2018-04-25T22:32:26.836Z,11.90
2018-04-25T22:34:54.416Z,11.90
2018-04-25T22:37:22.741Z,12.00
2018-04-25T22:39:50.271Z,11.90
2018-04-25T22:42:18.641Z,12.00
2018-04-25T22:44:46.168Z,12.00
2018-04-25T22:47:13.880Z,12.00
2018-04-25T22:49:41.420Z,11.90
2018-04-25T22:52:08.958Z,11.90
2018-04-25T22:54:37.268Z,11.90
2018-04-25T22:57:04.823Z,11.80
2018-04-25T22:59:33.102Z,11.80
2018-04-25T23:02:01.415Z,11.80
2018-04-25T23:04:30.931Z,11.80
2018-04-25T23:06:58.506Z,11.80
2018-04-25T23:09:33.019Z,11.80
2018-04-25T23:12:01.337Z,11.60
2018-04-25T23:14:28.859Z,11.60
2018-04-25T23:16:56.419Z,11.70
2018-04-25T23:19:24.069Z,11.70
2018-04-25T23:21:51.612Z,11.70
2018-04-25T23:24:19.987Z,11.70
2018-04-25T23:26:48.344Z,11.70
2018-04-25T23:29:15.874Z,11.70
2018-04-25T23:31:43.433Z,11.70
2018-04-25T23:34:11.727Z,11.70
2018-04-25T23:36:40.044Z,11.80
2018-04-25T23:39:07.599Z,11.70
2018-04-25T23:41:35.131Z,11.80
2018-04-25T23:44:02.707Z,11.80
2018-04-25T23:46:30.223Z,11.80
2018-04-25T23:48:57.758Z,11.80
2018-04-25T23:51:25.306Z,11.70
2018-04-25T23:53:52.852Z,11.70
2018-04-25T23:56:20.388Z,11.70
2018-04-25T23:58:48.689Z,11.80
